sensor_id;sensor_type;location;lat;lon;timestamp;P1;durP1;ratioP1;P2;durP2;ratioP2
17662;SDS011;8950;56.892;15.090;2023-04-03T00:00:25;2.90;;;1.63;;
17662;SDS011;8950;56.892;15.090;2023-04-03T00:02:51;1.70;;;1.42;;
17662;SDS011;8950;56.892;15.090;2023-04-03T00:05:17;2.40;;;1.50;;
17662;SDS011;8950;56.892;15.090;2023-04-03T00:07:44;2.33;;;1.48;;
17662;SDS011;8950;56.892;15.090;2023-04-03T00:10:11;1.75;;;1.50;;
17662;SDS011;8950;56.892;15.090;2023-04-03T00:12:37;2.10;;;1.55;;
17662;SDS011;8950;56.892;15.090;2023-04-03T00:15:04;3.08;;;1.70;;
17662;SDS011;8950;56.892;15.090;2023-04-03T00:17:32;2.10;;;1.60;;
17662;SDS011;8950;56.892;15.090;2023-04-03T00:19:58;2.10;;;1.58;;
17662;SDS011;8950;56.892;15.090;2023-04-03T00:22:25;2.97;;;1.52;;
17662;SDS011;8950;56.892;15.090;2023-04-03T00:24:53;3.22;;;1.70;;
17662;SDS011;8950;56.892;15.090;2023-04-03T00:27:19;3.72;;;1.80;;
17662;SDS011;8950;56.892;15.090;2023-04-03T00:29:46;2.80;;;1.55;;
17662;SDS011;8950;56.892;15.090;2023-04-03T00:32:13;3.20;;;1.40;;
17662;SDS011;8950;56.892;15.090;2023-04-03T00:34:41;2.50;;;1.70;;
17662;SDS011;8950;56.892;15.090;2023-04-03T00:37:07;1.77;;;1.42;;
17662;SDS011;8950;56.892;15.090;2023-04-03T00:39:34;2.63;;;1.55;;
17662;SDS011;8950;56.892;15.090;2023-04-03T00:42:01;1.65;;;1.40;;
17662;SDS011;8950;56.892;15.090;2023-04-03T00:47:09;2.40;;;1.55;;
17662;SDS011;8950;56.892;15.090;2023-04-03T00:49:36;1.75;;;1.38;;
17662;SDS011;8950;56.892;15.090;2023-04-03T00:52:05;3.20;;;1.90;;
17662;SDS011;8950;56.892;15.090;2023-04-03T00:54:33;2.65;;;1.80;;
17662;SDS011;8950;56.892;15.090;2023-04-03T00:57:01;2.72;;;1.55;;
17662;SDS011;8950;56.892;15.090;2023-04-03T00:59:30;1.83;;;1.30;;
17662;SDS011;8950;56.892;15.090;2023-04-03T01:01:57;3.13;;;1.75;;
17662;SDS011;8950;56.892;15.090;2023-04-03T01:04:28;2.00;;;1.40;;
17662;SDS011;8950;56.892;15.090;2023-04-03T01:06:56;2.45;;;1.48;;
17662;SDS011;8950;56.892;15.090;2023-04-03T01:09:24;2.13;;;1.42;;
17662;SDS011;8950;56.892;15.090;2023-04-03T01:11:50;2.25;;;1.60;;
17662;SDS011;8950;56.892;15.090;2023-04-03T01:14:17;2.67;;;1.58;;
17662;SDS011;8950;56.892;15.090;2023-04-03T01:16:50;3.47;;;1.73;;
17662;SDS011;8950;56.892;15.090;2023-04-03T01:19:17;2.03;;;1.70;;
17662;SDS011;8950;56.892;15.090;2023-04-03T01:22:01;2.25;;;1.63;;
17662;SDS011;8950;56.892;15.090;2023-04-03T01:24:34;2.72;;;1.48;;
17662;SDS011;8950;56.892;15.090;2023-04-03T01:27:04;3.28;;;1.75;;
17662;SDS011;8950;56.892;15.090;2023-04-03T01:29:31;2.92;;;1.75;;
17662;SDS011;8950;56.892;15.090;2023-04-03T01:31:59;2.08;;;1.50;;
17662;SDS011;8950;56.892;15.090;2023-04-03T01:34:26;4.88;;;1.70;;
17662;SDS011;8950;56.892;15.090;2023-04-03T01:36:54;1.80;;;1.42;;
17662;SDS011;8950;56.892;15.090;2023-04-03T01:39:21;2.50;;;1.40;;
17662;SDS011;8950;56.892;15.090;2023-04-03T01:41:48;2.05;;;1.42;;
17662;SDS011;8950;56.892;15.090;2023-04-03T01:44:15;2.88;;;1.55;;
17662;SDS011;8950;56.892;15.090;2023-04-03T01:46:41;1.65;;;1.50;;
17662;SDS011;8950;56.892;15.090;2023-04-03T01:49:09;3.03;;;1.63;;
17662;SDS011;8950;56.892;15.090;2023-04-03T01:51:35;2.97;;;1.70;;
17662;SDS011;8950;56.892;15.090;2023-04-03T01:54:02;1.77;;;1.50;;
17662;SDS011;8950;56.892;15.090;2023-04-03T01:56:29;3.28;;;1.85;;
17662;SDS011;8950;56.892;15.090;2023-04-03T01:58:55;2.33;;;1.55;;
17662;SDS011;8950;56.892;15.090;2023-04-03T02:01:21;3.42;;;1.55;;
17662;SDS011;8950;56.892;15.090;2023-04-03T02:03:48;2.40;;;1.50;;
17662;SDS011;8950;56.892;15.090;2023-04-03T02:06:16;2.47;;;1.73;;
17662;SDS011;8950;56.892;15.090;2023-04-03T02:08:42;1.92;;;1.50;;
17662;SDS011;8950;56.892;15.090;2023-04-03T02:11:09;3.20;;;1.88;;
17662;SDS011;8950;56.892;15.090;2023-04-03T02:13:35;1.98;;;1.30;;
17662;SDS011;8950;56.892;15.090;2023-04-03T02:16:05;1.80;;;1.40;;
17662;SDS011;8950;56.892;15.090;2023-04-03T02:18:32;1.90;;;1.40;;
17662;SDS011;8950;56.892;15.090;2023-04-03T02:20:58;2.38;;;1.60;;
17662;SDS011;8950;56.892;15.090;2023-04-03T02:23:26;3.33;;;1.60;;
17662;SDS011;8950;56.892;15.090;2023-04-03T02:25:53;1.77;;;1.48;;
17662;SDS011;8950;56.892;15.090;2023-04-03T02:28:19;2.03;;;1.40;;
17662;SDS011;8950;56.892;15.090;2023-04-03T02:30:46;2.60;;;1.58;;
17662;SDS011;8950;56.892;15.090;2023-04-03T02:33:12;2.35;;;1.55;;
17662;SDS011;8950;56.892;15.090;2023-04-03T02:35:38;2.03;;;1.50;;
17662;SDS011;8950;56.892;15.090;2023-04-03T02:38:05;2.53;;;1.67;;
17662;SDS011;8950;56.892;15.090;2023-04-03T02:40:33;2.25;;;1.50;;
17662;SDS011;8950;56.892;15.090;2023-04-03T02:43:00;3.50;;;1.70;;
17662;SDS011;8950;56.892;15.090;2023-04-03T02:45:26;2.88;;;1.50;;
17662;SDS011;8950;56.892;15.090;2023-04-03T02:47:53;2.30;;;1.67;;
17662;SDS011;8950;56.892;15.090;2023-04-03T02:50:19;3.47;;;1.60;;
17662;SDS011;8950;56.892;15.090;2023-04-03T02:52:46;1.42;;;1.33;;
17662;SDS011;8950;56.892;15.090;2023-04-03T02:55:13;2.05;;;1.50;;
17662;SDS011;8950;56.892;15.090;2023-04-03T02:57:41;2.70;;;1.50;;
17662;SDS011;8950;56.892;15.090;2023-04-03T03:00:08;3.17;;;1.55;;
17662;SDS011;8950;56.892;15.090;2023-04-03T03:02:35;1.60;;;1.50;;
17662;SDS011;8950;56.892;15.090;2023-04-03T03:05:01;1.55;;;1.45;;
17662;SDS011;8950;56.892;15.090;2023-04-03T03:07:27;1.70;;;1.60;;
17662;SDS011;8950;56.892;15.090;2023-04-03T03:09:54;1.90;;;1.38;;
17662;SDS011;8950;56.892;15.090;2023-04-03T03:12:20;1.70;;;1.50;;
17662;SDS011;8950;56.892;15.090;2023-04-03T03:14:49;1.25;;;1.15;;
17662;SDS011;8950;56.892;15.090;2023-04-03T03:17:16;2.22;;;1.60;;
17662;SDS011;8950;56.892;15.090;2023-04-03T03:19:43;2.45;;;1.55;;
17662;SDS011;8950;56.892;15.090;2023-04-03T03:22:10;2.60;;;1.60;;
17662;SDS011;8950;56.892;15.090;2023-04-03T03:24:37;2.08;;;1.23;;
17662;SDS011;8950;56.892;15.090;2023-04-03T03:27:03;2.70;;;1.50;;
17662;SDS011;8950;56.892;15.090;2023-04-03T03:29:30;1.60;;;1.40;;
17662;SDS011;8950;56.892;15.090;2023-04-03T03:31:58;2.45;;;1.40;;
17662;SDS011;8950;56.892;15.090;2023-04-03T03:34:24;3.20;;;1.45;;
17662;SDS011;8950;56.892;15.090;2023-04-03T03:36:51;2.58;;;1.50;;
17662;SDS011;8950;56.892;15.090;2023-04-03T03:39:17;2.35;;;1.45;;
17662;SDS011;8950;56.892;15.090;2023-04-03T03:41:43;2.47;;;1.70;;
17662;SDS011;8950;56.892;15.090;2023-04-03T03:44:10;3.33;;;1.60;;
17662;SDS011;8950;56.892;15.090;2023-04-03T03:46:36;1.63;;;1.50;;
17662;SDS011;8950;56.892;15.090;2023-04-03T03:49:04;1.83;;;1.58;;
17662;SDS011;8950;56.892;15.090;2023-04-03T03:51:31;3.03;;;1.70;;
17662;SDS011;8950;56.892;15.090;2023-04-03T03:53:57;2.85;;;1.90;;
17662;SDS011;8950;56.892;15.090;2023-04-03T03:56:23;6.95;;;4.60;;
17662;SDS011;8950;56.892;15.090;2023-04-03T03:58:50;9.45;;;6.18;;
17662;SDS011;8950;56.892;15.090;2023-04-03T04:01:17;9.38;;;6.50;;
17662;SDS011;8950;56.892;15.090;2023-04-03T04:03:43;9.18;;;6.30;;
17662;SDS011;8950;56.892;15.090;2023-04-03T04:06:11;9.73;;;5.95;;
17662;SDS011;8950;56.892;15.090;2023-04-03T04:08:38;1.80;;;1.50;;
17662;SDS011;8950;56.892;15.090;2023-04-03T04:11:04;1.75;;;1.55;;
17662;SDS011;8950;56.892;15.090;2023-04-03T04:13:31;2.50;;;1.70;;
17662;SDS011;8950;56.892;15.090;2023-04-03T04:15:57;2.30;;;1.52;;
17662;SDS011;8950;56.892;15.090;2023-04-03T04:18:24;1.98;;;1.63;;
17662;SDS011;8950;56.892;15.090;2023-04-03T04:20:50;2.38;;;1.70;;
17662;SDS011;8950;56.892;15.090;2023-04-03T04:23:18;3.80;;;1.65;;
17662;SDS011;8950;56.892;15.090;2023-04-03T04:25:44;1.63;;;1.33;;
17662;SDS011;8950;56.892;15.090;2023-04-03T04:28:11;2.45;;;1.40;;
17662;SDS011;8950;56.892;15.090;2023-04-03T04:30:38;1.80;;;1.30;;
17662;SDS011;8950;56.892;15.090;2023-04-03T04:33:04;2.55;;;1.30;;
17662;SDS011;8950;56.892;15.090;2023-04-03T04:35:31;1.38;;;1.25;;
17662;SDS011;8950;56.892;15.090;2023-04-03T04:37:58;2.08;;;1.60;;
17662;SDS011;8950;56.892;15.090;2023-04-03T04:40:26;2.22;;;1.35;;
17662;SDS011;8950;56.892;15.090;2023-04-03T04:42:52;1.77;;;1.42;;
17662;SDS011;8950;56.892;15.090;2023-04-03T04:45:19;1.65;;;1.55;;
17662;SDS011;8950;56.892;15.090;2023-04-03T04:47:45;2.72;;;1.17;;
17662;SDS011;8950;56.892;15.090;2023-04-03T04:50:11;13.52;;;1.85;;
17662;SDS011;8950;56.892;15.090;2023-04-03T04:52:38;5.57;;;1.92;;
17662;SDS011;8950;56.892;15.090;2023-04-03T04:55:05;5.82;;;1.65;;
17662;SDS011;8950;56.892;15.090;2023-04-03T04:57:33;3.38;;;2.20;;
17662;SDS011;8950;56.892;15.090;2023-04-03T05:00:00;2.25;;;2.03;;
17662;SDS011;8950;56.892;15.090;2023-04-03T05:02:26;3.58;;;2.55;;
17662;SDS011;8950;56.892;15.090;2023-04-03T05:04:53;2.67;;;2.00;;
17662;SDS011;8950;56.892;15.090;2023-04-03T05:07:20;5.80;;;4.30;;
17662;SDS011;8950;56.892;15.090;2023-04-03T05:09:46;7.75;;;5.53;;
17662;SDS011;8950;56.892;15.090;2023-04-03T05:12:12;7.60;;;5.72;;
17662;SDS011;8950;56.892;15.090;2023-04-03T05:14:40;3.45;;;2.30;;
17662;SDS011;8950;56.892;15.090;2023-04-03T05:17:06;6.82;;;3.83;;
17662;SDS011;8950;56.892;15.090;2023-04-03T05:19:33;2.45;;;2.10;;
17662;SDS011;8950;56.892;15.090;2023-04-03T05:21:59;2.28;;;1.50;;
17662;SDS011;8950;56.892;15.090;2023-04-03T05:24:26;2.97;;;1.50;;
17662;SDS011;8950;56.892;15.090;2023-04-03T05:26:52;2.15;;;1.50;;
17662;SDS011;8950;56.892;15.090;2023-04-03T05:29:18;2.35;;;1.67;;
17662;SDS011;8950;56.892;15.090;2023-04-03T05:31:46;2.17;;;1.90;;
17662;SDS011;8950;56.892;15.090;2023-04-03T05:34:14;5.68;;;2.10;;
17662;SDS011;8950;56.892;15.090;2023-04-03T05:36:41;6.60;;;1.92;;
17662;SDS011;8950;56.892;15.090;2023-04-03T05:39:07;2.38;;;1.58;;
17662;SDS011;8950;56.892;15.090;2023-04-03T05:41:34;2.28;;;2.08;;
17662;SDS011;8950;56.892;15.090;2023-04-03T05:44:01;2.30;;;1.90;;
17662;SDS011;8950;56.892;15.090;2023-04-03T05:46:27;2.35;;;1.60;;
17662;SDS011;8950;56.892;15.090;2023-04-03T05:48:56;4.28;;;1.73;;
17662;SDS011;8950;56.892;15.090;2023-04-03T05:51:23;2.50;;;1.60;;
17662;SDS011;8950;56.892;15.090;2023-04-03T05:53:51;1.88;;;1.48;;
17662;SDS011;8950;56.892;15.090;2023-04-03T05:56:18;1.63;;;1.30;;
17662;SDS011;8950;56.892;15.090;2023-04-03T05:58:45;1.90;;;1.50;;
17662;SDS011;8950;56.892;15.090;2023-04-03T06:01:11;2.17;;;1.33;;
17662;SDS011;8950;56.892;15.090;2023-04-03T06:03:37;3.58;;;1.63;;
17662;SDS011;8950;56.892;15.090;2023-04-03T06:06:06;2.55;;;1.58;;
17662;SDS011;8950;56.892;15.090;2023-04-03T06:08:33;1.67;;;1.58;;
17662;SDS011;8950;56.892;15.090;2023-04-03T06:11:00;2.72;;;1.60;;
17662;SDS011;8950;56.892;15.090;2023-04-03T06:13:27;1.92;;;1.73;;
17662;SDS011;8950;56.892;15.090;2023-04-03T06:15:53;2.15;;;1.48;;
17662;SDS011;8950;56.892;15.090;2023-04-03T06:18:20;3.85;;;1.70;;
17662;SDS011;8950;56.892;15.090;2023-04-03T06:20:46;1.80;;;1.42;;
17662;SDS011;8950;56.892;15.090;2023-04-03T06:23:14;1.77;;;1.40;;
17662;SDS011;8950;56.892;15.090;2023-04-03T06:25:41;2.60;;;1.40;;
17662;SDS011;8950;56.892;15.090;2023-04-03T06:28:08;1.70;;;1.60;;
17662;SDS011;8950;56.892;15.090;2023-04-03T06:30:35;2.60;;;1.50;;
17662;SDS011;8950;56.892;15.090;2023-04-03T06:33:01;2.10;;;1.50;;
17662;SDS011;8950;56.892;15.090;2023-04-03T06:35:28;2.38;;;1.60;;
17662;SDS011;8950;56.892;15.090;2023-04-03T06:37:55;5.30;;;1.65;;
17662;SDS011;8950;56.892;15.090;2023-04-03T06:40:24;5.82;;;1.90;;
17662;SDS011;8950;56.892;15.090;2023-04-03T06:42:51;6.40;;;1.70;;
17662;SDS011;8950;56.892;15.090;2023-04-03T06:45:17;1.63;;;1.42;;
17662;SDS011;8950;56.892;15.090;2023-04-03T06:47:44;2.63;;;1.83;;
17662;SDS011;8950;56.892;15.090;2023-04-03T06:50:11;2.15;;;1.58;;
17662;SDS011;8950;56.892;15.090;2023-04-03T06:52:39;1.95;;;1.40;;
17662;SDS011;8950;56.892;15.090;2023-04-03T06:55:06;2.40;;;1.30;;
17662;SDS011;8950;56.892;15.090;2023-04-03T06:57:34;3.03;;;1.67;;
17662;SDS011;8950;56.892;15.090;2023-04-03T07:00:01;3.33;;;1.80;;
17662;SDS011;8950;56.892;15.090;2023-04-03T07:02:29;2.42;;;1.80;;
17662;SDS011;8950;56.892;15.090;2023-04-03T07:04:55;2.13;;;1.55;;
17662;SDS011;8950;56.892;15.090;2023-04-03T07:07:22;2.70;;;1.50;;
17662;SDS011;8950;56.892;15.090;2023-04-03T07:09:48;3.75;;;1.58;;
17662;SDS011;8950;56.892;15.090;2023-04-03T07:12:15;1.83;;;1.63;;
17662;SDS011;8950;56.892;15.090;2023-04-03T07:14:43;2.75;;;1.50;;
17662;SDS011;8950;56.892;15.090;2023-04-03T07:17:09;2.20;;;1.35;;
17662;SDS011;8950;56.892;15.090;2023-04-03T07:19:36;1.98;;;1.27;;
17662;SDS011;8950;56.892;15.090;2023-04-03T07:22:02;2.42;;;1.48;;
17662;SDS011;8950;56.892;15.090;2023-04-03T07:24:28;3.15;;;1.80;;
17662;SDS011;8950;56.892;15.090;2023-04-03T07:26:55;2.38;;;1.52;;
17662;SDS011;8950;56.892;15.090;2023-04-03T07:29:22;2.05;;;1.60;;
17662;SDS011;8950;56.892;15.090;2023-04-03T07:31:50;2.00;;;1.50;;
17662;SDS011;8950;56.892;15.090;2023-04-03T07:34:17;2.60;;;1.58;;
17662;SDS011;8950;56.892;15.090;2023-04-03T07:36:43;2.95;;;1.40;;
17662;SDS011;8950;56.892;15.090;2023-04-03T07:39:10;3.00;;;1.60;;
17662;SDS011;8950;56.892;15.090;2023-04-03T07:41:36;2.70;;;1.60;;
17662;SDS011;8950;56.892;15.090;2023-04-03T07:44:03;2.35;;;1.33;;
17662;SDS011;8950;56.892;15.090;2023-04-03T07:46:30;3.88;;;1.55;;
17662;SDS011;8950;56.892;15.090;2023-04-03T07:48:58;2.97;;;1.42;;
17662;SDS011;8950;56.892;15.090;2023-04-03T07:51:24;3.15;;;1.50;;
17662;SDS011;8950;56.892;15.090;2023-04-03T07:53:51;1.80;;;1.42;;
17662;SDS011;8950;56.892;15.090;2023-04-03T07:56:17;2.42;;;1.48;;
17662;SDS011;8950;56.892;15.090;2023-04-03T07:58:45;2.33;;;1.40;;
17662;SDS011;8950;56.892;15.090;2023-04-03T08:01:11;1.52;;;1.35;;
17662;SDS011;8950;56.892;15.090;2023-04-03T08:03:38;1.60;;;1.50;;
17662;SDS011;8950;56.892;15.090;2023-04-03T08:06:07;1.33;;;1.20;;
17662;SDS011;8950;56.892;15.090;2023-04-03T08:08:34;2.40;;;1.60;;
17662;SDS011;8950;56.892;15.090;2023-04-03T08:11:01;2.42;;;1.50;;
17662;SDS011;8950;56.892;15.090;2023-04-03T08:13:30;11.30;;;1.92;;
17662;SDS011;8950;56.892;15.090;2023-04-03T08:15:57;4.18;;;1.70;;
17662;SDS011;8950;56.892;15.090;2023-04-03T08:18:24;1.65;;;1.50;;
17662;SDS011;8950;56.892;15.090;2023-04-03T08:20:51;2.05;;;1.45;;
17662;SDS011;8950;56.892;15.090;2023-04-03T08:23:19;2.88;;;1.30;;
17662;SDS011;8950;56.892;15.090;2023-04-03T08:25:46;1.40;;;1.30;;
17662;SDS011;8950;56.892;15.090;2023-04-03T08:28:12;1.83;;;1.33;;
17662;SDS011;8950;56.892;15.090;2023-04-03T08:30:39;1.45;;;1.27;;
17662;SDS011;8950;56.892;15.090;2023-04-03T08:33:06;2.25;;;1.55;;
17662;SDS011;8950;56.892;15.090;2023-04-03T08:35:32;1.85;;;1.30;;
17662;SDS011;8950;56.892;15.090;2023-04-03T08:37:59;1.83;;;1.35;;
17662;SDS011;8950;56.892;15.090;2023-04-03T08:40:27;2.15;;;1.60;;
17662;SDS011;8950;56.892;15.090;2023-04-03T08:42:59;5.38;;;1.50;;
17662;SDS011;8950;56.892;15.090;2023-04-03T08:45:34;2.15;;;1.40;;
17662;SDS011;8950;56.892;15.090;2023-04-03T08:48:05;2.03;;;1.33;;
17662;SDS011;8950;56.892;15.090;2023-04-03T08:50:33;3.38;;;1.30;;
17662;SDS011;8950;56.892;15.090;2023-04-03T08:53:02;1.50;;;1.40;;
17662;SDS011;8950;56.892;15.090;2023-04-03T08:55:33;3.20;;;1.40;;
17662;SDS011;8950;56.892;15.090;2023-04-03T08:58:01;2.30;;;1.40;;
17662;SDS011;8950;56.892;15.090;2023-04-03T09:00:29;1.60;;;1.50;;
17662;SDS011;8950;56.892;15.090;2023-04-03T09:02:56;1.67;;;1.30;;
17662;SDS011;8950;56.892;15.090;2023-04-03T09:05:26;3.38;;;1.67;;
17662;SDS011;8950;56.892;15.090;2023-04-03T09:07:57;1.95;;;1.40;;
17662;SDS011;8950;56.892;15.090;2023-04-03T09:10:26;1.42;;;1.33;;
17662;SDS011;8950;56.892;15.090;2023-04-03T09:12:59;1.45;;;1.20;;
17662;SDS011;8950;56.892;15.090;2023-04-03T09:15:27;2.33;;;1.30;;
17662;SDS011;8950;56.892;15.090;2023-04-03T09:17:59;1.95;;;1.30;;
17662;SDS011;8950;56.892;15.090;2023-04-03T09:20:27;2.75;;;1.40;;
17662;SDS011;8950;56.892;15.090;2023-04-03T09:22:57;1.27;;;1.17;;
17662;SDS011;8950;56.892;15.090;2023-04-03T09:25:24;1.52;;;1.20;;
17662;SDS011;8950;56.892;15.090;2023-04-03T09:27:51;2.50;;;1.33;;
17662;SDS011;8950;56.892;15.090;2023-04-03T09:30:20;1.73;;;1.40;;
17662;SDS011;8950;56.892;15.090;2023-04-03T09:32:48;1.45;;;1.10;;
17662;SDS011;8950;56.892;15.090;2023-04-03T09:35:16;34.78;;;4.00;;
17662;SDS011;8950;56.892;15.090;2023-04-03T09:37:45;3.30;;;1.20;;
17662;SDS011;8950;56.892;15.090;2023-04-03T09:40:32;1.27;;;1.17;;
17662;SDS011;8950;56.892;15.090;2023-04-03T09:43:00;2.63;;;1.40;;
17662;SDS011;8950;56.892;15.090;2023-04-03T09:45:29;1.45;;;1.23;;
17662;SDS011;8950;56.892;15.090;2023-04-03T09:50:52;2.88;;;1.40;;
17662;SDS011;8950;56.892;15.090;2023-04-03T09:53:25;3.25;;;1.80;;
17662;SDS011;8950;56.892;15.090;2023-04-03T09:55:52;1.30;;;1.20;;
17662;SDS011;8950;56.892;15.090;2023-04-03T09:58:23;11.48;;;1.95;;
17662;SDS011;8950;56.892;15.090;2023-04-03T10:00:55;1.25;;;1.15;;
17662;SDS011;8950;56.892;15.090;2023-04-03T10:03:23;1.50;;;1.10;;
17662;SDS011;8950;56.892;15.090;2023-04-03T10:05:50;1.65;;;1.20;;
17662;SDS011;8950;56.892;15.090;2023-04-03T10:08:21;2.67;;;1.33;;
17662;SDS011;8950;56.892;15.090;2023-04-03T10:11:04;1.40;;;1.30;;
17662;SDS011;8950;56.892;15.090;2023-04-03T10:13:31;2.00;;;1.20;;
17662;SDS011;8950;56.892;15.090;2023-04-03T10:16:00;1.25;;;1.15;;
17662;SDS011;8950;56.892;15.090;2023-04-03T10:18:30;1.70;;;1.30;;
17662;SDS011;8950;56.892;15.090;2023-04-03T10:20:59;1.25;;;1.10;;
17662;SDS011;8950;56.892;15.090;2023-04-03T10:23:30;2.50;;;1.25;;
17662;SDS011;8950;56.892;15.090;2023-04-03T10:26:01;1.70;;;1.10;;
17662;SDS011;8950;56.892;15.090;2023-04-03T10:28:33;1.83;;;1.40;;
17662;SDS011;8950;56.892;15.090;2023-04-03T10:31:04;1.60;;;1.30;;
17662;SDS011;8950;56.892;15.090;2023-04-03T10:33:39;1.38;;;1.27;;
17662;SDS011;8950;56.892;15.090;2023-04-03T10:36:16;1.60;;;1.20;;
17662;SDS011;8950;56.892;15.090;2023-04-03T10:38:47;2.08;;;1.20;;
17662;SDS011;8950;56.892;15.090;2023-04-03T10:41:16;1.33;;;1.23;;
17662;SDS011;8950;56.892;15.090;2023-04-03T10:43:44;1.30;;;1.20;;
17662;SDS011;8950;56.892;15.090;2023-04-03T10:46:18;1.50;;;1.38;;
17662;SDS011;8950;56.892;15.090;2023-04-03T10:48:49;1.60;;;1.30;;
17662;SDS011;8950;56.892;15.090;2023-04-03T10:51:24;1.40;;;1.20;;
17662;SDS011;8950;56.892;15.090;2023-04-03T10:53:55;1.25;;;1.15;;
17662;SDS011;8950;56.892;15.090;2023-04-03T10:56:27;1.40;;;1.30;;
17662;SDS011;8950;56.892;15.090;2023-04-03T10:58:56;1.92;;;1.20;;
17662;SDS011;8950;56.892;15.090;2023-04-03T11:01:26;1.52;;;1.27;;
17662;SDS011;8950;56.892;15.090;2023-04-03T11:03:56;1.02;;;1.02;;
17662;SDS011;8950;56.892;15.090;2023-04-03T11:06:25;2.08;;;1.48;;
17662;SDS011;8950;56.892;15.090;2023-04-03T11:08:52;2.20;;;1.25;;
17662;SDS011;8950;56.892;15.090;2023-04-03T11:11:22;1.40;;;1.00;;
17662;SDS011;8950;56.892;15.090;2023-04-03T11:13:51;1.23;;;1.10;;
17662;SDS011;8950;56.892;15.090;2023-04-03T11:16:21;1.10;;;1.05;;
17662;SDS011;8950;56.892;15.090;2023-04-03T11:18:52;1.25;;;1.15;;
17662;SDS011;8950;56.892;15.090;2023-04-03T11:21:21;1.15;;;1.10;;
17662;SDS011;8950;56.892;15.090;2023-04-03T11:23:49;1.92;;;1.30;;
17662;SDS011;8950;56.892;15.090;2023-04-03T11:26:18;1.50;;;1.30;;
17662;SDS011;8950;56.892;15.090;2023-04-03T11:28:45;1.10;;;1.00;;
17662;SDS011;8950;56.892;15.090;2023-04-03T11:31:15;1.55;;;1.20;;
17662;SDS011;8950;56.892;15.090;2023-04-03T11:33:47;2.40;;;1.20;;
17662;SDS011;8950;56.892;15.090;2023-04-03T11:36:21;1.45;;;1.20;;
17662;SDS011;8950;56.892;15.090;2023-04-03T11:38:49;1.95;;;1.48;;
17662;SDS011;8950;56.892;15.090;2023-04-03T11:41:17;1.40;;;1.30;;
17662;SDS011;8950;56.892;15.090;2023-04-03T11:43:55;1.25;;;1.17;;
17662;SDS011;8950;56.892;15.090;2023-04-03T11:46:22;1.10;;;1.00;;
17662;SDS011;8950;56.892;15.090;2023-04-03T11:48:51;1.20;;;1.10;;
17662;SDS011;8950;56.892;15.090;2023-04-03T11:51:41;1.88;;;1.33;;
17662;SDS011;8950;56.892;15.090;2023-04-03T11:56:49;1.83;;;1.30;;
17662;SDS011;8950;56.892;15.090;2023-04-03T11:59:22;1.58;;;1.48;;
17662;SDS011;8950;56.892;15.090;2023-04-03T12:01:50;1.88;;;1.23;;
17662;SDS011;8950;56.892;15.090;2023-04-03T12:04:17;1.48;;;1.10;;
17662;SDS011;8950;56.892;15.090;2023-04-03T12:06:54;1.30;;;1.20;;
17662;SDS011;8950;56.892;15.090;2023-04-03T12:09:26;1.20;;;1.10;;
17662;SDS011;8950;56.892;15.090;2023-04-03T12:11:53;1.90;;;1.48;;
17662;SDS011;8950;56.892;15.090;2023-04-03T12:14:22;1.70;;;1.30;;
17662;SDS011;8950;56.892;15.090;2023-04-03T12:16:49;1.00;;;1.00;;
17662;SDS011;8950;56.892;15.090;2023-04-03T12:19:33;1.30;;;1.20;;
17662;SDS011;8950;56.892;15.090;2023-04-03T12:22:14;1.27;;;1.17;;
17662;SDS011;8950;56.892;15.090;2023-04-03T12:24:42;1.30;;;1.20;;
17662;SDS011;8950;56.892;15.090;2023-04-03T12:29:55;1.15;;;1.02;;
17662;SDS011;8950;56.892;15.090;2023-04-03T12:32:35;1.40;;;1.30;;
17662;SDS011;8950;56.892;15.090;2023-04-03T12:35:08;1.35;;;1.25;;
17662;SDS011;8950;56.892;15.090;2023-04-03T12:37:42;2.05;;;1.27;;
17662;SDS011;8950;56.892;15.090;2023-04-03T12:40:10;1.48;;;1.30;;
17662;SDS011;8950;56.892;15.090;2023-04-03T12:42:52;2.17;;;1.27;;
17662;SDS011;8950;56.892;15.090;2023-04-03T12:45:23;2.38;;;1.55;;
17662;SDS011;8950;56.892;15.090;2023-04-03T12:47:51;1.20;;;1.10;;
17662;SDS011;8950;56.892;15.090;2023-04-03T12:50:21;2.97;;;1.40;;
17662;SDS011;8950;56.892;15.090;2023-04-03T12:52:51;1.55;;;1.20;;
17662;SDS011;8950;56.892;15.090;2023-04-03T12:55:21;1.23;;;1.13;;
17662;SDS011;8950;56.892;15.090;2023-04-03T12:57:48;2.70;;;1.50;;
17662;SDS011;8950;56.892;15.090;2023-04-03T13:00:18;2.08;;;1.45;;
17662;SDS011;8950;56.892;15.090;2023-04-03T13:02:45;1.40;;;1.30;;
17662;SDS011;8950;56.892;15.090;2023-04-03T13:05:13;3.17;;;1.50;;
17662;SDS011;8950;56.892;15.090;2023-04-03T13:07:41;1.20;;;1.10;;
17662;SDS011;8950;56.892;15.090;2023-04-03T13:10:15;1.40;;;1.27;;
17662;SDS011;8950;56.892;15.090;2023-04-03T13:12:45;1.55;;;1.38;;
17662;SDS011;8950;56.892;15.090;2023-04-03T13:15:14;1.65;;;1.20;;
17662;SDS011;8950;56.892;15.090;2023-04-03T13:17:41;15.30;;;2.30;;
17662;SDS011;8950;56.892;15.090;2023-04-03T13:20:12;1.95;;;1.20;;
17662;SDS011;8950;56.892;15.090;2023-04-03T13:22:43;2.50;;;1.40;;
17662;SDS011;8950;56.892;15.090;2023-04-03T13:25:14;3.22;;;1.33;;
17662;SDS011;8950;56.892;15.090;2023-04-03T13:27:40;1.33;;;1.23;;
17662;SDS011;8950;56.892;15.090;2023-04-03T13:30:17;1.75;;;1.50;;
17662;SDS011;8950;56.892;15.090;2023-04-03T13:32:45;1.20;;;1.10;;
17662;SDS011;8950;56.892;15.090;2023-04-03T13:35:26;2.00;;;1.45;;
17662;SDS011;8950;56.892;15.090;2023-04-03T13:37:55;1.30;;;1.20;;
17662;SDS011;8950;56.892;15.090;2023-04-03T13:40:24;1.85;;;1.35;;
17662;SDS011;8950;56.892;15.090;2023-04-03T13:42:58;1.67;;;1.40;;
17662;SDS011;8950;56.892;15.090;2023-04-03T13:45:25;1.77;;;1.50;;
17662;SDS011;8950;56.892;15.090;2023-04-03T13:47:54;1.50;;;1.38;;
17662;SDS011;8950;56.892;15.090;2023-04-03T13:50:21;2.60;;;1.30;;
17662;SDS011;8950;56.892;15.090;2023-04-03T13:52:52;1.48;;;1.38;;
17662;SDS011;8950;56.892;15.090;2023-04-03T13:55:20;1.35;;;1.25;;
17662;SDS011;8950;56.892;15.090;2023-04-03T13:57:53;2.08;;;1.67;;
17662;SDS011;8950;56.892;15.090;2023-04-03T14:00:21;1.83;;;1.60;;
17662;SDS011;8950;56.892;15.090;2023-04-03T14:02:47;2.80;;;1.40;;
17662;SDS011;8950;56.892;15.090;2023-04-03T14:05:14;1.55;;;1.30;;
17662;SDS011;8950;56.892;15.090;2023-04-03T14:07:43;2.10;;;1.20;;
17662;SDS011;8950;56.892;15.090;2023-04-03T14:10:10;1.60;;;1.50;;
17662;SDS011;8950;56.892;15.090;2023-04-03T14:12:37;1.70;;;1.30;;
17662;SDS011;8950;56.892;15.090;2023-04-03T14:15:07;1.42;;;1.33;;
17662;SDS011;8950;56.892;15.090;2023-04-03T14:17:38;1.77;;;1.27;;
17662;SDS011;8950;56.892;15.090;2023-04-03T14:20:05;1.98;;;1.25;;
17662;SDS011;8950;56.892;15.090;2023-04-03T14:22:32;1.90;;;1.40;;
17662;SDS011;8950;56.892;15.090;2023-04-03T14:24:59;1.52;;;1.38;;
17662;SDS011;8950;56.892;15.090;2023-04-03T14:27:27;1.40;;;1.30;;
17662;SDS011;8950;56.892;15.090;2023-04-03T14:29:54;1.35;;;1.20;;
17662;SDS011;8950;56.892;15.090;2023-04-03T14:32:23;2.90;;;1.40;;
17662;SDS011;8950;56.892;15.090;2023-04-03T14:34:50;1.70;;;1.40;;
17662;SDS011;8950;56.892;15.090;2023-04-03T14:37:18;2.50;;;1.48;;
17662;SDS011;8950;56.892;15.090;2023-04-03T14:39:45;1.30;;;1.20;;
17662;SDS011;8950;56.892;15.090;2023-04-03T14:42:12;1.30;;;1.20;;
17662;SDS011;8950;56.892;15.090;2023-04-03T14:44:39;1.73;;;1.40;;
17662;SDS011;8950;56.892;15.090;2023-04-03T14:47:08;1.83;;;1.40;;
17662;SDS011;8950;56.892;15.090;2023-04-03T14:49:37;3.15;;;1.50;;
17662;SDS011;8950;56.892;15.090;2023-04-03T14:52:03;1.92;;;1.17;;
17662;SDS011;8950;56.892;15.090;2023-04-03T14:54:29;1.65;;;1.30;;
17662;SDS011;8950;56.892;15.090;2023-04-03T14:56:57;1.35;;;1.20;;
17662;SDS011;8950;56.892;15.090;2023-04-03T14:59:23;1.50;;;1.30;;
17662;SDS011;8950;56.892;15.090;2023-04-03T15:01:50;2.15;;;1.45;;
17662;SDS011;8950;56.892;15.090;2023-04-03T15:04:18;1.40;;;1.30;;